Hlavní strana
METAR-TAF:

METAR-TAF

Letiště :

Sindal, Dánsko

zeměpisná šířka: 57-30N, zeměpisná délka: 010-13E, výška: 28 m

Aktuální stav počasí

Zpráva byla vytvořena před 6 hodinami a 23 minutami, v 14:50 UTC
Jižní vítr 13 kt
Teplota 6°C
Vlhkost vzduchu 87%
Tlak 997 hPa
Viditelnost 10 km a více
Oblačno až skoro zataženo ve výšce 1800 ft

METAR: EKSN 121450Z 18013KT 9999 BKN018 06/04 Q0997

Čas: 22:13 (21:13 UTC)

Předpověď počasí

Zpráva byla vytvořena před 9 hodinami a 22 minutami, v 11:51 UTC
Předpověď platná od 12 v 12 UTC do 12 v 16 UTC
Jižní vítr 15 kt
Viditelnost 10 km a více
Oblačno až skoro zataženo ve výšce 2000 ft

TAF: EKSN 121151Z 1212/1216 17015KT 9999 BKN020

Stav a předpovědi počasí z více než 4 000 letišť (zprávy METAR a TAF).

Červené a žluté tečky na mapě představují dostupné meteorologické stanice.

Když kurzor umístíte na tečku, zobrazí se název stanice.

Pak kliknutím zobrazíte stav a předpověď počasí.

Chcete-li změnit mapu, kliknutím na zelené tlačítko se znaménkem +mapu přiblížíte, kliknutím na zelené tlačítko se znaménkem – mapu oddálíte a kliknutím na zelené šipky přejdete na sousední mapy.


METAR-TAF: